< Typhoon 196724 1967 Season Typhoon 196726 >
Typhoon 196725 (THELMA)
General InformationTrack Information on Google Maps || Disaster Info.ResourceGoogle EarthGE AnimationAtom FeedGeoJSON
Detalied Best Track (Time Zone = UTC)
Year Month Day Hour Lat. Long. Pressure (hPa) Wind (kt) Class Image Chart
1967 9 10 00 28.6 167.3 994 0 9 -- Chart
1967 9 10 06 29.3 166.1 994 0 9 -- Chart
1967 9 10 12 29.8 164.5 990 0 9 -- Chart
1967 9 10 18 29.9 162.2 990 0 9 -- Chart
1967 9 11 00 30.0 160.0 990 0 9 -- Chart
1967 9 11 06 30.0 157.1 990 0 9 -- Chart
1967 9 11 12 30.1 154.4 994 0 9 -- Chart
1967 9 11 18 30.7 151.6 994 0 9 -- Chart
1967 9 12 00 32.0 149.7 998 0 9 -- Chart
1967 9 12 06 33.0 148.0 998 0 9 -- Chart
1967 9 12 12 34.4 147.0 998 0 9 -- Chart
1967 9 12 18 37.0 146.5 998 0 9 -- Chart
1967 9 13 00 40.0 146.2 998 0 6 -- Chart
1967 9 13 06 43.0 147.0 1000 0 6 -- Chart
1967 9 13 12 45.0 149.9 1000 0 6 -- Chart
1967 9 13 18 47.6 153.9 998 0 6 -- Chart
1967 9 14 00 49.0 157.0 994 0 6 -- Chart
1967 9 14 06 50.0 160.6 994 0 6 -- Chart
1967 9 14 12 50.6 163.2 984 0 6 -- Chart
1967 9 14 18 52.6 169.0 982 0 6 -- Chart
1967 9 15 00 54.0 171.0 976 0 6 -- Chart
1967 9 15 06 54.0 176.0 964 0 6 -- Chart
1967 9 15 12 52.0 182.0 964 0 6 -- Chart
Japan Meteorological Agency Best Track Data | Correction Date : 1991-07-16
< Typhoon 196724 1967 Season Typhoon 196726 >

Help